createdAt,value
2019-03-05T00:02:10.690Z,46.23
2019-03-05T00:04:41.896Z,49.67
2019-03-05T00:07:12.905Z,47.87
2019-03-05T00:09:42.477Z,48.27
2019-03-05T00:12:11.976Z,62.80
2019-03-05T00:14:41.487Z,59.60
2019-03-05T00:17:12.773Z,49.70
2019-03-05T00:19:42.174Z,48.37
2019-03-05T00:22:11.617Z,46.70
2019-03-05T00:25:04.489Z,51.93
2019-03-05T00:27:46.090Z,51.97
2019-03-05T00:30:54.060Z,50.03
2019-03-05T00:33:44.965Z,49.90
2019-03-05T00:36:24.725Z,47.33
2019-03-05T00:39:20.828Z,46.13
2019-03-05T00:42:34.661Z,51.17
2019-03-05T00:45:35.838Z,44.70
2019-03-05T00:48:40.673Z,52.43
2019-03-05T00:51:46.946Z,51.42
2019-03-05T00:55:06.425Z,44.73
2019-03-05T00:58:29.121Z,45.40
2019-03-05T01:01:14.453Z,44.30
2019-03-05T01:04:10.504Z,42.33
2019-03-05T01:06:40.124Z,43.57
2019-03-05T01:09:17.317Z,43.93
2019-03-05T01:11:47.603Z,40.88
2019-03-05T01:14:17.325Z,40.98
2019-03-05T01:16:47.141Z,43.38
2019-03-05T01:19:16.636Z,43.63
2019-03-05T01:21:46.128Z,40.00
2019-03-05T01:24:15.765Z,42.17
2019-03-05T01:26:45.253Z,43.17
2019-03-05T01:29:14.774Z,39.98
2019-03-05T01:32:04.449Z,43.13
2019-03-05T01:34:58.453Z,40.90
2019-03-05T01:37:29.340Z,38.95
2019-03-05T01:40:23.324Z,37.17
2019-03-05T01:42:52.744Z,35.08
2019-03-05T01:45:22.170Z,35.27
2019-03-05T01:47:51.603Z,36.70
2019-03-05T01:50:21.028Z,37.27
2019-03-05T01:52:51.733Z,36.00
2019-03-05T01:55:24.270Z,35.95
2019-03-05T01:57:53.785Z,32.40
2019-03-05T02:00:23.193Z,31.20
2019-03-05T02:02:54.288Z,35.25
2019-03-05T02:05:23.683Z,33.17
2019-03-05T02:07:53.441Z,34.10
2019-03-05T02:10:24.641Z,32.25
2019-03-05T02:12:56.963Z,32.93
2019-03-05T02:15:26.372Z,33.00
2019-03-05T02:17:55.800Z,31.33
2019-03-05T02:20:26.042Z,31.00
2019-03-05T02:22:59.542Z,32.88
2019-03-05T02:25:53.397Z,32.77
2019-03-05T02:29:00.192Z,32.13
2019-03-05T02:32:09.143Z,30.27
2019-03-05T02:35:05.176Z,32.25
2019-03-05T02:38:06.018Z,33.00
2019-03-05T02:40:45.354Z,29.77
2019-03-05T02:43:43.292Z,32.17
2019-03-05T02:47:08.477Z,33.95
2019-03-05T02:50:26.902Z,28.27
2019-03-05T02:53:46.857Z,28.92
2019-03-05T02:56:51.506Z,28.73
2019-03-05T02:59:21.706Z,26.40
2019-03-05T03:02:11.934Z,27.25
2019-03-05T03:04:46.128Z,27.87
2019-03-05T03:07:15.580Z,27.55
2019-03-05T03:10:11.222Z,25.17
2019-03-05T03:12:40.814Z,25.43
2019-03-05T03:15:17.599Z,25.50
2019-03-05T03:17:47.453Z,24.63
2019-03-05T03:20:18.461Z,26.45
2019-03-05T03:22:47.941Z,28.40
2019-03-05T03:25:20.491Z,22.62
2019-03-05T03:27:51.765Z,25.62
2019-03-05T03:30:26.105Z,26.20
2019-03-05T03:32:55.737Z,25.30
2019-03-05T03:35:25.253Z,24.00
2019-03-05T03:37:54.759Z,24.72
2019-03-05T03:40:24.835Z,26.97
2019-03-05T03:42:54.964Z,28.60
2019-03-05T03:45:29.036Z,25.97
2019-03-05T03:47:58.556Z,28.07
2019-03-05T03:50:27.974Z,27.35
2019-03-05T03:52:58.859Z,28.83
2019-03-05T03:55:28.778Z,28.38
2019-03-05T03:57:58.305Z,28.55
2019-03-05T04:00:28.015Z,30.20
2019-03-05T04:02:58.654Z,28.67
2019-03-05T04:05:28.122Z,27.10
2019-03-05T04:07:57.562Z,28.55
2019-03-05T04:10:27.046Z,29.52
2019-03-05T04:12:56.530Z,29.25
2019-03-05T04:15:26.039Z,29.85
2019-03-05T04:17:56.948Z,28.75
2019-03-05T04:20:48.454Z,28.02
2019-03-05T04:23:17.971Z,28.67
2019-03-05T04:25:47.450Z,27.52
2019-03-05T04:28:17.009Z,28.12
2019-03-05T04:30:46.506Z,26.95
2019-03-05T04:33:17.085Z,27.75
2019-03-05T04:35:46.592Z,28.42
2019-03-05T04:38:16.076Z,26.12
2019-03-05T04:40:45.604Z,28.98
2019-03-05T04:43:16.113Z,28.42
2019-03-05T04:46:03.279Z,30.80
2019-03-05T04:48:32.769Z,33.08
2019-03-05T04:51:31.524Z,33.95
2019-03-05T04:54:00.941Z,33.60
2019-03-05T04:56:30.478Z,31.95
2019-03-05T04:59:01.101Z,33.02
2019-03-05T05:01:30.681Z,32.30
2019-03-05T05:04:00.160Z,32.90
2019-03-05T05:06:29.669Z,33.88
2019-03-05T05:08:59.167Z,33.02
2019-03-05T05:11:28.652Z,32.98
2019-03-05T05:13:58.178Z,36.33
2019-03-05T05:16:29.520Z,35.28
2019-03-05T05:18:58.930Z,35.63
2019-03-05T05:21:28.443Z,36.85
2019-03-05T05:23:57.921Z,32.00
2019-03-05T05:26:27.465Z,34.63
2019-03-05T05:28:58.702Z,34.18
2019-03-05T05:31:28.177Z,34.63
2019-03-05T05:33:57.603Z,35.45
2019-03-05T05:36:27.080Z,32.28
2019-03-05T05:38:58.049Z,35.20
2019-03-05T05:41:27.565Z,32.20
2019-03-05T05:43:56.969Z,30.45
2019-03-05T05:46:26.403Z,30.82
2019-03-05T05:48:55.880Z,30.32
2019-03-05T05:51:25.284Z,31.75
2019-03-05T05:53:56.525Z,29.60
2019-03-05T05:56:25.929Z,32.40
2019-03-05T05:58:55.413Z,31.40
2019-03-05T06:01:24.849Z,32.05
2019-03-05T06:03:54.249Z,30.82
2019-03-05T06:06:23.761Z,34.03
2019-03-05T06:08:53.343Z,32.13
2019-03-05T06:11:22.763Z,35.90
2019-03-05T06:13:52.230Z,34.13
2019-03-05T06:16:23.548Z,33.90
2019-03-05T06:18:52.960Z,34.98
2019-03-05T06:21:22.392Z,32.83
2019-03-05T06:23:51.801Z,33.70
2019-03-05T06:26:21.275Z,32.60
2019-03-05T06:28:50.704Z,31.95
2019-03-05T06:31:20.109Z,32.60
2019-03-05T06:33:49.609Z,33.38
2019-03-05T06:36:19.022Z,34.13
2019-03-05T06:38:48.529Z,36.53
2019-03-05T06:41:18.034Z,39.58
2019-03-05T06:43:47.464Z,34.90
2019-03-05T06:46:16.896Z,37.25
2019-03-05T06:48:46.390Z,38.02
2019-03-05T06:51:15.877Z,36.83
2019-03-05T06:53:45.379Z,37.80
2019-03-05T06:56:14.871Z,41.92
2019-03-05T06:58:44.377Z,38.80
2019-03-05T07:01:15.252Z,36.25
2019-03-05T07:03:45.769Z,39.63
2019-03-05T07:06:47.041Z,36.45
2019-03-05T07:09:56.444Z,35.35
2019-03-05T07:13:02.450Z,39.10
2019-03-05T07:16:08.740Z,37.25
2019-03-05T07:18:45.409Z,37.50
2019-03-05T07:22:17.057Z,39.38
2019-03-05T07:24:49.389Z,39.40
2019-03-05T07:27:24.619Z,40.55
2019-03-05T07:29:56.929Z,43.15
2019-03-05T07:32:26.417Z,43.25
2019-03-05T07:34:55.908Z,40.78
2019-03-05T07:37:26.856Z,42.55
2019-03-05T07:39:56.375Z,40.00
2019-03-05T07:42:25.848Z,40.95
2019-03-05T07:44:57.064Z,41.20
2019-03-05T07:47:26.512Z,42.05
2019-03-05T07:49:56.001Z,44.77
2019-03-05T07:52:27.216Z,44.15
2019-03-05T07:54:56.730Z,42.90
2019-03-05T07:57:26.224Z,42.73
2019-03-05T07:59:55.679Z,39.00
2019-03-05T08:02:25.209Z,40.40
2019-03-05T08:04:54.617Z,39.20
2019-03-05T08:07:25.845Z,40.17
2019-03-05T08:09:55.936Z,40.57
2019-03-05T08:13:02.232Z,40.03
2019-03-05T08:16:07.157Z,41.00
2019-03-05T08:18:36.597Z,39.90
2019-03-05T08:21:07.060Z,42.20
2019-03-05T08:23:36.548Z,40.00
2019-03-05T08:26:06.157Z,43.50
2019-03-05T08:28:36.616Z,42.07
2019-03-05T08:31:06.137Z,43.80
2019-03-05T08:33:36.725Z,42.37
2019-03-05T08:36:06.365Z,45.30
2019-03-05T08:38:35.774Z,38.97
2019-03-05T08:41:05.276Z,38.77
2019-03-05T08:43:35.842Z,40.70
2019-03-05T08:46:06.805Z,40.37
2019-03-05T08:48:36.295Z,40.30
2019-03-05T08:51:05.767Z,39.47
2019-03-05T08:53:35.233Z,41.00
2019-03-05T08:56:05.681Z,39.23
2019-03-05T08:58:35.224Z,38.70
2019-03-05T09:01:05.689Z,36.57
2019-03-05T09:03:35.126Z,40.50
2019-03-05T09:06:05.715Z,39.77
2019-03-05T09:08:35.149Z,38.60
2019-03-05T09:11:05.147Z,40.77
2019-03-05T09:13:34.564Z,37.40
2019-03-05T09:16:04.164Z,38.53
2019-03-05T09:18:33.610Z,37.40
2019-03-05T09:21:03.081Z,33.73
2019-03-05T09:23:32.905Z,33.40
2019-03-05T09:26:02.343Z,33.40
2019-03-05T09:28:31.748Z,32.93
2019-03-05T09:31:01.160Z,33.60
2019-03-05T09:33:31.704Z,34.17
2019-03-05T09:36:01.120Z,33.63
2019-03-05T09:38:49.639Z,32.00
2019-03-05T09:41:20.529Z,31.33
2019-03-05T09:43:49.968Z,30.83
2019-03-05T09:46:19.396Z,30.87
2019-03-05T09:48:48.817Z,29.07
2019-03-05T09:51:18.328Z,29.03
2019-03-05T09:53:47.817Z,31.30
2019-03-05T09:56:17.221Z,30.00
2019-03-05T09:58:46.653Z,31.70
2019-03-05T10:01:16.133Z,32.27
2019-03-05T10:03:45.675Z,40.27
2019-03-05T10:06:16.274Z,40.60
2019-03-05T10:08:48.230Z,43.37
2019-03-05T10:11:17.787Z,41.10
2019-03-05T10:13:47.685Z,39.40
2019-03-05T10:16:18.586Z,40.47
2019-03-05T10:18:49.267Z,42.10
2019-03-05T10:21:18.748Z,41.10
2019-03-05T10:23:49.821Z,39.03
2019-03-05T10:26:19.384Z,38.30
2019-03-05T10:28:48.863Z,39.80
2019-03-05T10:31:18.901Z,40.10
2019-03-05T10:33:50.668Z,39.80
2019-03-05T10:36:20.122Z,37.03
2019-03-05T10:38:57.169Z,36.70
2019-03-05T10:41:20.772Z,38.63
2019-03-05T10:43:50.208Z,36.63
2019-03-05T10:46:19.632Z,33.00
2019-03-05T10:48:49.041Z,34.60
2019-03-05T10:51:18.468Z,35.67
2019-03-05T10:53:47.972Z,35.03
2019-03-05T10:56:17.770Z,34.47
2019-03-05T10:58:47.248Z,30.77
2019-03-05T11:01:17.825Z,30.47
2019-03-05T11:03:47.265Z,29.27
2019-03-05T11:06:16.681Z,27.23
2019-03-05T11:08:46.472Z,25.47
2019-03-05T11:11:18.467Z,25.33
2019-03-05T11:13:47.972Z,29.47
2019-03-05T11:16:17.399Z,28.97
2019-03-05T11:18:46.880Z,23.20
2019-03-05T11:21:16.315Z,25.20
2019-03-05T11:23:46.825Z,23.33
2019-03-05T11:26:16.229Z,23.47
2019-03-05T11:28:45.665Z,25.27
2019-03-05T11:31:15.070Z,24.80
2019-03-05T11:33:44.477Z,25.53
2019-03-05T11:36:13.897Z,23.47
2019-03-05T11:38:43.301Z,24.83
2019-03-05T11:41:15.233Z,22.80
2019-03-05T11:43:44.932Z,21.37
2019-03-05T11:46:20.313Z,20.30
2019-03-05T11:48:51.242Z,22.07
2019-03-05T11:51:20.789Z,22.97
2019-03-05T11:53:50.218Z,19.50
2019-03-05T11:56:21.508Z,19.30
2019-03-05T11:58:51.069Z,19.63
2019-03-05T12:01:42.448Z,20.23
2019-03-05T12:04:11.976Z,18.73
2019-03-05T12:06:42.922Z,18.97
2019-03-05T12:09:12.432Z,21.13
2019-03-05T12:11:43.013Z,21.10
2019-03-05T12:14:12.488Z,20.20
2019-03-05T12:16:43.813Z,19.43
2019-03-05T12:19:13.292Z,18.53
2019-03-05T12:21:42.769Z,18.10
2019-03-05T12:24:12.200Z,19.67
2019-03-05T12:26:43.072Z,21.90
2019-03-05T12:29:12.513Z,20.97
2019-03-05T12:31:41.974Z,19.53
2019-03-05T12:34:13.177Z,19.40
2019-03-05T12:36:42.593Z,17.23
2019-03-05T12:39:13.325Z,18.67
2019-03-05T12:41:42.756Z,16.70
2019-03-05T12:44:15.175Z,17.37
2019-03-05T12:46:44.670Z,16.67
2019-03-05T12:49:14.194Z,16.57
2019-03-05T12:51:46.795Z,17.70
2019-03-05T12:54:16.333Z,16.60
2019-03-05T12:56:45.760Z,16.50
2019-03-05T12:59:15.223Z,16.63
2019-03-05T13:01:44.721Z,16.20
2019-03-05T13:04:14.220Z,14.60
2019-03-05T13:06:43.626Z,18.13
2019-03-05T13:09:19.628Z,15.90
2019-03-05T13:11:49.934Z,15.17
2019-03-05T13:14:20.237Z,16.00
2019-03-05T13:16:49.732Z,14.90
2019-03-05T13:19:20.345Z,17.10
2019-03-05T13:21:50.222Z,15.00
2019-03-05T13:24:21.593Z,17.53
2019-03-05T13:26:51.029Z,17.40
2019-03-05T13:29:20.706Z,16.70
2019-03-05T13:31:50.392Z,15.40
2019-03-05T13:34:21.344Z,16.80
2019-03-05T13:36:51.730Z,15.93
2019-03-05T13:39:22.383Z,14.53
2019-03-05T13:41:53.788Z,14.73
2019-03-05T13:44:35.768Z,15.00
2019-03-05T13:47:07.736Z,14.70
2019-03-05T13:50:17.968Z,15.33
2019-03-05T13:53:15.165Z,16.83
2019-03-05T13:56:31.506Z,15.30
2019-03-05T13:59:34.714Z,21.10
2019-03-05T14:02:05.271Z,16.37
2019-03-05T14:04:48.525Z,16.50
2019-03-05T14:08:11.216Z,15.87
2019-03-05T14:10:40.693Z,16.07
2019-03-05T14:13:11.974Z,14.33
2019-03-05T14:15:44.320Z,13.80
2019-03-05T14:18:13.801Z,15.10
2019-03-05T14:20:43.383Z,14.33
2019-03-05T14:23:12.865Z,14.90
2019-03-05T14:25:42.496Z,15.93
2019-03-05T14:28:13.435Z,14.47
2019-03-05T14:30:43.429Z,12.93
2019-03-05T14:33:14.179Z,14.40
2019-03-05T14:35:44.280Z,14.53
2019-03-05T14:38:15.236Z,14.93
2019-03-05T14:40:44.835Z,15.83
2019-03-05T14:43:14.319Z,15.50
2019-03-05T14:45:44.408Z,17.00
2019-03-05T14:48:14.183Z,14.47
2019-03-05T14:50:43.741Z,13.93
2019-03-05T14:53:13.217Z,15.70
2019-03-05T14:55:42.899Z,13.83
2019-03-05T14:58:12.441Z,13.53
2019-03-05T15:00:42.989Z,14.37
2019-03-05T15:03:15.157Z,15.70
2019-03-05T15:05:44.762Z,12.67
2019-03-05T15:08:14.312Z,13.60
2019-03-05T15:10:43.717Z,13.30
2019-03-05T15:13:17.256Z,13.40
2019-03-05T15:15:44.448Z,13.87
2019-03-05T15:18:17.564Z,12.03
2019-03-05T15:20:47.014Z,12.17
2019-03-05T15:23:16.566Z,13.23
2019-03-05T15:25:46.084Z,12.33
2019-03-05T15:28:15.546Z,12.00
2019-03-05T15:30:45.025Z,12.83
2019-03-05T15:33:15.770Z,11.77
2019-03-05T15:35:45.352Z,14.07
2019-03-05T15:38:14.822Z,13.27
2019-03-05T15:40:44.347Z,12.60
2019-03-05T15:43:13.806Z,13.30
2019-03-05T15:45:43.506Z,12.90
2019-03-05T15:48:13.001Z,12.63
2019-03-05T15:50:42.509Z,12.50
2019-03-05T15:53:13.066Z,12.40
2019-03-05T15:55:42.535Z,12.13
2019-03-05T15:58:12.011Z,12.70
2019-03-05T16:00:43.313Z,11.40
2019-03-05T16:03:12.921Z,12.37
2019-03-05T16:05:42.418Z,12.97
2019-03-05T16:08:12.013Z,11.93
2019-03-05T16:10:41.521Z,12.17
2019-03-05T16:13:11.033Z,11.43
2019-03-05T16:15:41.871Z,12.23
2019-03-05T16:18:11.668Z,11.50
2019-03-05T16:20:41.097Z,11.87
2019-03-05T16:23:10.618Z,11.87
2019-03-05T16:25:40.206Z,11.17
2019-03-05T16:28:09.764Z,10.00
2019-03-05T16:31:11.342Z,12.40
2019-03-05T16:34:00.396Z,12.10
2019-03-05T16:36:48.756Z,11.07
2019-03-05T16:39:37.757Z,11.57
2019-03-05T16:42:32.259Z,12.17
2019-03-05T16:45:18.789Z,12.20
2019-03-05T16:48:09.976Z,10.67
2019-03-05T16:50:52.189Z,8.80
2019-03-05T16:53:52.849Z,5.40
2019-03-05T16:56:50.352Z,4.43
2019-03-05T16:59:57.114Z,3.80
2019-03-05T17:02:33.225Z,3.60
2019-03-05T17:05:22.215Z,3.47
2019-03-05T17:08:10.742Z,3.80
2019-03-05T17:11:06.584Z,4.20
2019-03-05T17:13:55.109Z,4.63
2019-03-05T17:16:25.263Z,4.10
2019-03-05T17:18:54.869Z,3.47
2019-03-05T17:21:27.532Z,4.90
2019-03-05T17:23:55.517Z,3.83
2019-03-05T17:26:25.013Z,4.93
2019-03-05T17:28:55.970Z,3.50
2019-03-05T17:31:25.564Z,3.30
2019-03-05T17:33:55.043Z,4.47
2019-03-05T17:36:24.836Z,5.10
2019-03-05T17:38:54.634Z,4.17
2019-03-05T17:41:25.420Z,4.30
2019-03-05T17:43:54.849Z,4.80
2019-03-05T17:46:24.335Z,6.40
2019-03-05T17:48:55.325Z,4.00
2019-03-05T17:51:27.039Z,3.47
2019-03-05T17:53:57.514Z,3.87
2019-03-05T17:56:27.204Z,4.43
2019-03-05T17:58:58.530Z,3.77
2019-03-05T18:01:29.737Z,4.10
2019-03-05T18:04:00.356Z,5.17
2019-03-05T18:06:29.939Z,4.30
2019-03-05T18:08:59.453Z,5.50
2019-03-05T18:11:29.856Z,4.63
2019-03-05T18:13:59.337Z,5.10
2019-03-05T18:16:30.073Z,4.03
2019-03-05T18:19:01.356Z,4.33
2019-03-05T18:21:30.857Z,3.40
2019-03-05T18:24:01.813Z,3.93
2019-03-05T18:26:31.284Z,4.03
2019-03-05T18:29:00.808Z,4.50
2019-03-05T18:31:31.847Z,5.93
2019-03-05T18:34:01.355Z,4.57
2019-03-05T18:36:30.897Z,4.00
2019-03-05T18:39:00.503Z,5.37
2019-03-05T18:41:30.220Z,5.03
2019-03-05T18:44:01.177Z,4.30
2019-03-05T18:46:32.384Z,4.90
2019-03-05T18:49:01.870Z,4.30
2019-03-05T18:51:31.460Z,3.63
2019-03-05T18:54:00.903Z,4.17
2019-03-05T18:56:31.012Z,3.80
2019-03-05T18:59:00.604Z,3.83
2019-03-05T19:01:30.125Z,4.03
2019-03-05T19:03:59.603Z,4.17
2019-03-05T19:06:29.177Z,4.70
2019-03-05T19:08:58.694Z,3.20
2019-03-05T19:11:28.177Z,3.90
2019-03-05T19:13:58.691Z,4.90
2019-03-05T19:16:28.186Z,4.13
2019-03-05T19:18:57.669Z,3.70
2019-03-05T19:21:29.396Z,2.73
2019-03-05T19:23:58.984Z,4.20
2019-03-05T19:26:28.494Z,3.70
2019-03-05T19:28:57.977Z,3.47
2019-03-05T19:31:27.508Z,4.83
2019-03-05T19:33:58.955Z,4.63
2019-03-05T19:36:28.697Z,4.10
2019-03-05T19:38:58.188Z,3.50
2019-03-05T19:41:27.765Z,3.67
2019-03-05T19:43:57.658Z,3.97
2019-03-05T19:46:27.272Z,4.97
2019-03-05T19:48:56.761Z,3.63
2019-03-05T19:51:26.514Z,3.70
2019-03-05T19:53:57.960Z,3.20
2019-03-05T19:56:27.543Z,3.90
2019-03-05T19:58:57.105Z,4.00
2019-03-05T20:01:33.288Z,3.47
2019-03-05T20:04:11.366Z,3.60
2019-03-05T20:06:34.073Z,4.83
2019-03-05T20:09:04.008Z,4.33
2019-03-05T20:11:34.792Z,3.53
2019-03-05T20:14:04.347Z,4.00
2019-03-05T20:16:35.083Z,4.60
2019-03-05T20:19:04.864Z,3.60
2019-03-05T20:21:34.380Z,3.77
2019-03-05T20:24:04.410Z,3.33
2019-03-05T20:26:34.001Z,3.77
2019-03-05T20:29:03.728Z,3.50
2019-03-05T20:31:33.210Z,4.60
2019-03-05T20:34:03.997Z,3.67
2019-03-05T20:36:34.700Z,3.77
2019-03-05T20:39:05.357Z,3.70
2019-03-05T20:41:34.856Z,3.30
2019-03-05T20:44:05.836Z,4.60
2019-03-05T20:46:35.376Z,3.47
2019-03-05T20:49:04.865Z,2.93
2019-03-05T20:51:36.411Z,3.70
2019-03-05T20:54:05.884Z,3.20
2019-03-05T20:56:35.694Z,5.60
2019-03-05T20:59:05.680Z,4.13
2019-03-05T21:01:35.208Z,4.40
2019-03-05T21:04:05.197Z,4.83
2019-03-05T21:06:34.881Z,5.50
2019-03-05T21:09:05.965Z,3.20
2019-03-05T21:11:35.433Z,3.23
2019-03-05T21:14:04.945Z,3.57
2019-03-05T21:16:34.624Z,3.80
2019-03-05T21:19:04.101Z,3.70
2019-03-05T21:21:33.604Z,4.53
2019-03-05T21:24:05.846Z,3.27
2019-03-05T21:26:35.470Z,3.87
2019-03-05T21:29:04.962Z,3.50
2019-03-05T21:31:34.469Z,3.70
2019-03-05T21:34:05.062Z,3.53
2019-03-05T21:36:34.532Z,3.60
2019-03-05T21:39:05.797Z,3.83
2019-03-05T21:41:37.186Z,3.37
2019-03-05T21:44:06.757Z,3.70
2019-03-05T21:46:37.692Z,3.87
2019-03-05T21:49:07.298Z,3.37
2019-03-05T21:51:37.893Z,3.20
2019-03-05T21:54:07.474Z,3.90
2019-03-05T21:56:38.196Z,4.60
2019-03-05T21:59:07.713Z,2.53
2019-03-05T22:01:37.192Z,3.33
2019-03-05T22:04:06.676Z,3.60
2019-03-05T22:06:36.165Z,3.50
2019-03-05T22:09:07.861Z,4.40
2019-03-05T22:11:38.501Z,3.70
2019-03-05T22:14:08.082Z,3.33
2019-03-05T22:16:37.656Z,5.53
2019-03-05T22:19:07.256Z,3.67
2019-03-05T22:21:36.735Z,3.53
2019-03-05T22:24:08.001Z,3.37
2019-03-05T22:26:37.503Z,3.13
2019-03-05T22:29:08.788Z,3.83
2019-03-05T22:31:38.367Z,3.13
2019-03-05T22:34:07.865Z,3.43
2019-03-05T22:36:37.282Z,3.37
2019-03-05T22:39:08.469Z,2.97
2019-03-05T22:41:38.400Z,3.30
2019-03-05T22:44:07.935Z,3.70
2019-03-05T22:46:37.437Z,3.50
2019-03-05T22:49:06.909Z,4.07
2019-03-05T22:51:36.473Z,3.60
2019-03-05T22:54:05.962Z,3.80
2019-03-05T22:56:35.457Z,3.50
2019-03-05T22:59:05.256Z,3.13
2019-03-05T23:01:40.224Z,3.80
2019-03-05T23:04:11.390Z,3.70
2019-03-05T23:06:42.625Z,2.80
2019-03-05T23:09:19.304Z,3.70
2019-03-05T23:11:50.242Z,2.80
2019-03-05T23:14:19.865Z,3.50
2019-03-05T23:16:49.379Z,3.90
2019-03-05T23:19:18.893Z,3.40
2019-03-05T23:21:50.231Z,3.70
2019-03-05T23:24:19.861Z,3.27
2019-03-05T23:26:49.465Z,3.30
2019-03-05T23:29:20.770Z,3.03
2019-03-05T23:31:50.397Z,3.70
2019-03-05T23:34:20.954Z,3.30
2019-03-05T23:36:50.507Z,2.90
2019-03-05T23:39:20.016Z,2.97
2019-03-05T23:41:49.630Z,3.13
2019-03-05T23:44:19.160Z,3.10
2019-03-05T23:46:48.696Z,4.20
2019-03-05T23:49:18.231Z,2.67
2019-03-05T23:51:47.746Z,3.27
2019-03-05T23:54:20.514Z,3.30
2019-03-05T23:56:50.055Z,3.50
2019-03-05T23:59:19.570Z,3.83
